createdAt,value
2024-04-11T00:01:28.085Z,55.22
2024-04-11T00:03:56.412Z,55.35
2024-04-11T00:06:23.310Z,54.97
2024-04-11T00:08:50.001Z,55.47
2024-04-11T00:11:16.693Z,55.01
2024-04-11T00:13:43.404Z,55.50
2024-04-11T00:16:10.883Z,55.22
2024-04-11T00:18:41.068Z,54.82
2024-04-11T00:21:08.000Z,54.74
2024-04-11T00:23:34.754Z,54.97
2024-04-11T00:26:01.605Z,55.36
2024-04-11T00:28:28.247Z,55.05
2024-04-11T00:30:54.935Z,54.52
2024-04-11T00:33:22.868Z,54.99
2024-04-11T00:35:51.047Z,54.65
2024-04-11T00:38:19.137Z,54.72
2024-04-11T00:40:56.494Z,54.88
2024-04-11T00:43:30.969Z,55.07
2024-04-11T00:45:59.437Z,54.66
2024-04-11T00:48:26.858Z,55.15
2024-04-11T00:50:54.928Z,54.82
2024-04-11T00:53:23.153Z,54.47
2024-04-11T00:55:49.871Z,54.61
2024-04-11T00:58:17.228Z,55.07
2024-04-11T01:00:44.143Z,54.84
2024-04-11T01:03:11.091Z,55.25
2024-04-11T01:05:37.940Z,54.76
2024-04-11T01:08:08.292Z,54.38
2024-04-11T01:10:35.831Z,54.70
2024-04-11T01:13:03.467Z,54.63
2024-04-11T01:15:30.384Z,54.52
2024-04-11T01:17:57.628Z,54.45
2024-04-11T01:20:24.650Z,54.94
2024-04-11T01:22:51.410Z,54.46
2024-04-11T01:25:19.373Z,54.77
2024-04-11T01:27:47.000Z,54.76
2024-04-11T01:30:13.692Z,54.83
2024-04-11T01:32:40.576Z,54.83
2024-04-11T01:35:10.130Z,54.46
2024-04-11T01:37:37.478Z,54.52
2024-04-11T01:40:09.160Z,55.10
2024-04-11T01:42:36.032Z,55.10
2024-04-11T01:45:03.703Z,54.76
2024-04-11T01:47:31.406Z,55.05
2024-04-11T01:49:58.277Z,54.99
2024-04-11T01:52:25.013Z,55.23
2024-04-11T01:54:51.760Z,54.96
2024-04-11T01:57:18.408Z,55.32
2024-04-11T01:59:45.217Z,55.50
2024-04-11T02:02:12.126Z,55.86
2024-04-11T02:04:39.890Z,55.63
2024-04-11T02:07:06.669Z,55.81
2024-04-11T02:09:33.295Z,55.71
2024-04-11T02:12:00.172Z,55.85
2024-04-11T02:14:27.625Z,56.17
2024-04-11T02:16:56.399Z,55.77
2024-04-11T02:19:23.364Z,55.71
2024-04-11T02:21:49.971Z,55.89
2024-04-11T02:24:19.565Z,56.19
2024-04-11T02:26:50.350Z,56.34
2024-04-11T02:29:18.449Z,56.49
2024-04-11T02:31:47.705Z,56.32
2024-04-11T02:34:14.736Z,56.15
2024-04-11T02:36:41.558Z,56.37
2024-04-11T02:39:14.171Z,56.68
2024-04-11T02:41:43.134Z,56.71
2024-04-11T02:44:10.646Z,56.99
2024-04-11T02:46:37.267Z,57.17
2024-04-11T02:49:06.446Z,56.88
2024-04-11T02:51:37.251Z,57.45
2024-04-11T02:54:08.314Z,57.12
2024-04-11T02:56:35.318Z,57.54
2024-04-11T02:59:02.133Z,57.81
2024-04-11T03:01:29.381Z,57.39
2024-04-11T03:03:58.220Z,57.59
2024-04-11T03:06:24.877Z,57.79
2024-04-11T03:08:53.846Z,57.70
2024-04-11T03:11:20.702Z,57.60
2024-04-11T03:13:47.408Z,57.92
2024-04-11T03:16:15.485Z,57.86
2024-04-11T03:18:42.378Z,57.92
2024-04-11T03:21:09.238Z,58.24
2024-04-11T03:23:36.047Z,58.16
2024-04-11T03:26:02.756Z,58.22
2024-04-11T03:28:29.600Z,58.54
2024-04-11T03:31:09.202Z,58.37
2024-04-11T03:33:36.916Z,58.55
2024-04-11T03:36:12.002Z,58.57
2024-04-11T03:38:39.110Z,58.74
2024-04-11T03:41:11.233Z,58.75
2024-04-11T03:43:39.783Z,59.26
2024-04-11T03:46:22.952Z,59.10
2024-04-11T03:48:52.553Z,59.20
2024-04-11T03:51:21.542Z,59.50
2024-04-11T03:53:52.447Z,59.15
2024-04-11T03:56:23.158Z,59.82
2024-04-11T03:58:53.945Z,59.84
2024-04-11T04:01:22.928Z,60.22
2024-04-11T04:03:51.109Z,60.13
2024-04-11T04:06:18.107Z,60.01
2024-04-11T04:08:46.795Z,60.08
2024-04-11T04:11:14.988Z,60.51
2024-04-11T04:13:42.388Z,60.75
2024-04-11T04:16:13.665Z,60.46
2024-04-11T04:18:47.504Z,60.78
2024-04-11T04:21:15.587Z,60.73
2024-04-11T04:23:43.874Z,60.93
2024-04-11T04:26:13.694Z,61.43
2024-04-11T04:28:41.119Z,61.24
2024-04-11T04:31:24.783Z,60.97
2024-04-11T04:33:54.387Z,61.72
2024-04-11T04:36:27.252Z,61.65
2024-04-11T04:38:57.751Z,61.64
2024-04-11T04:41:29.719Z,61.82
2024-04-11T04:44:01.358Z,62.32
2024-04-11T04:46:35.918Z,62.64
2024-04-11T04:49:05.022Z,62.85
2024-04-11T04:51:37.247Z,63.32
2024-04-11T04:54:04.443Z,63.18
2024-04-11T04:56:34.492Z,63.58
2024-04-11T04:59:01.757Z,63.78
2024-04-11T05:01:28.510Z,64.10
2024-04-11T05:03:57.073Z,63.47
2024-04-11T05:06:24.417Z,64.27
2024-04-11T05:08:54.759Z,64.17
2024-04-11T05:11:23.591Z,64.47
2024-04-11T05:13:51.326Z,64.94
2024-04-11T05:16:22.523Z,64.20
2024-04-11T05:18:55.123Z,65.05
2024-04-11T05:21:25.879Z,65.25
2024-04-11T05:23:56.936Z,65.61
2024-04-11T05:26:27.358Z,66.30
2024-04-11T05:28:56.506Z,67.01
2024-04-11T05:31:29.645Z,67.44
2024-04-11T05:34:02.040Z,67.44
2024-04-11T05:36:31.892Z,69.23
2024-04-11T05:38:59.091Z,69.65
2024-04-11T05:41:26.895Z,70.71
2024-04-11T05:43:55.832Z,70.01
2024-04-11T05:46:23.683Z,71.38
2024-04-11T05:48:51.752Z,71.88
2024-04-11T05:51:20.196Z,72.54
2024-04-11T05:53:47.340Z,72.82
2024-04-11T05:56:15.373Z,73.34
2024-04-11T05:58:44.338Z,73.00
2024-04-11T06:01:17.315Z,73.36
2024-04-11T06:03:50.774Z,73.90
2024-04-11T06:06:20.974Z,74.49
2024-04-11T06:08:48.841Z,74.83
2024-04-11T06:11:22.872Z,75.38
2024-04-11T06:13:49.647Z,75.70
2024-04-11T06:16:16.803Z,75.44
2024-04-11T06:18:45.224Z,76.20
2024-04-11T06:21:19.813Z,76.76
2024-04-11T06:23:46.700Z,76.22
2024-04-11T06:26:16.030Z,77.08
2024-04-11T06:28:43.011Z,77.57
2024-04-11T06:31:10.676Z,78.39
2024-04-11T06:33:42.374Z,79.25
2024-04-11T06:36:12.143Z,80.34
2024-04-11T06:38:39.653Z,80.26
2024-04-11T06:41:09.771Z,80.72
2024-04-11T06:43:39.351Z,81.30
2024-04-11T06:46:11.755Z,81.67
2024-04-11T06:48:38.907Z,81.48
2024-04-11T06:51:08.332Z,82.15
2024-04-11T06:53:35.596Z,83.08
2024-04-11T06:56:02.306Z,83.74
2024-04-11T06:58:30.150Z,83.65
2024-04-11T07:01:01.365Z,84.33
2024-04-11T07:03:29.550Z,84.41
2024-04-11T07:05:58.362Z,84.04
2024-04-11T07:08:30.614Z,85.02
2024-04-11T07:10:59.912Z,85.25
2024-04-11T07:13:29.143Z,85.03
2024-04-11T07:15:59.833Z,85.88
2024-04-11T07:18:35.779Z,86.34
2024-04-11T07:21:08.853Z,86.58
2024-04-11T07:23:35.917Z,86.67
2024-04-11T07:26:02.601Z,86.97
2024-04-11T07:28:29.235Z,86.91
2024-04-11T07:30:55.945Z,87.21
2024-04-11T07:33:22.697Z,86.93
2024-04-11T07:35:50.242Z,87.25
2024-04-11T07:38:18.309Z,87.68
2024-04-11T07:40:55.449Z,87.54
2024-04-11T07:43:24.080Z,87.69
2024-04-11T07:45:50.883Z,87.58
2024-04-11T07:48:20.356Z,87.56
2024-04-11T07:50:47.268Z,87.58
2024-04-11T07:53:16.537Z,86.76
2024-04-11T07:55:45.379Z,87.21
2024-04-11T07:58:12.262Z,86.56
2024-04-11T08:00:48.941Z,87.35
2024-04-11T08:03:18.012Z,86.91
2024-04-11T08:05:45.445Z,86.48
2024-04-11T08:08:13.619Z,87.59
2024-04-11T08:10:40.280Z,87.94
2024-04-11T08:13:09.280Z,87.53
2024-04-11T08:15:35.987Z,87.99
2024-04-11T08:18:05.807Z,88.08
2024-04-11T08:20:32.746Z,88.32
2024-04-11T08:23:03.780Z,88.02
2024-04-11T08:25:32.798Z,87.91
2024-04-11T08:28:01.630Z,88.45
2024-04-11T08:30:28.270Z,88.63
2024-04-11T08:32:56.257Z,88.59
2024-04-11T08:35:22.983Z,88.36
2024-04-11T08:37:52.747Z,89.09
2024-04-11T08:40:20.526Z,89.69
2024-04-11T08:42:49.072Z,89.56
2024-04-11T08:45:15.766Z,89.92
2024-04-11T08:47:42.558Z,89.67
2024-04-11T08:50:11.352Z,90.06
2024-04-11T08:52:44.613Z,89.57
2024-04-11T08:55:14.541Z,88.75
2024-04-11T08:57:41.321Z,90.54
2024-04-11T09:00:14.883Z,90.28
2024-04-11T09:02:42.709Z,90.04
2024-04-11T09:07:40.866Z,89.63
2024-04-11T09:10:08.422Z,90.24
2024-04-11T09:12:35.233Z,90.93
2024-04-11T09:15:08.483Z,89.60
2024-04-11T09:17:45.532Z,89.98
2024-04-11T09:20:20.689Z,89.95
2024-04-11T09:22:55.518Z,90.99
2024-04-11T09:25:27.168Z,91.57
2024-04-11T09:28:00.114Z,92.38
2024-04-11T09:30:36.046Z,91.81
2024-04-11T09:33:11.386Z,92.60
2024-04-11T09:35:42.950Z,92.61
2024-04-11T09:38:14.032Z,93.19
2024-04-11T09:40:45.423Z,93.29
2024-04-11T09:43:16.929Z,93.18
2024-04-11T09:45:50.502Z,94.09
2024-04-11T09:48:22.441Z,94.46
2024-04-11T09:50:52.165Z,93.67
2024-04-11T09:53:28.510Z,94.20
2024-04-11T09:55:58.224Z,95.26
2024-04-11T09:58:29.693Z,94.80
2024-04-11T10:01:06.281Z,93.90
2024-04-11T10:03:44.179Z,95.05
2024-04-11T10:06:15.685Z,95.41
2024-04-11T10:08:46.836Z,94.72
2024-04-11T10:11:14.238Z,95.07
2024-04-11T10:13:50.603Z,95.15
2024-04-11T10:16:29.468Z,94.65
2024-04-11T10:19:07.241Z,94.87
2024-04-11T10:21:47.508Z,95.14
2024-04-11T10:24:27.559Z,94.37
2024-04-11T10:26:56.261Z,96.00
2024-04-11T10:29:28.001Z,96.07
2024-04-11T10:31:59.542Z,96.17
2024-04-11T10:34:35.451Z,95.61
2024-04-11T10:37:04.185Z,96.67
2024-04-11T10:39:36.846Z,95.98
2024-04-11T10:42:04.613Z,96.05
2024-04-11T10:44:31.484Z,97.21
2024-04-11T10:46:58.328Z,96.88
2024-04-11T10:49:29.793Z,97.33
2024-04-11T10:51:59.861Z,96.98
2024-04-11T10:54:31.515Z,97.10
2024-04-11T10:56:59.731Z,97.34
2024-04-11T10:59:29.342Z,97.39
2024-04-11T11:02:10.299Z,96.81
2024-04-11T11:04:44.938Z,97.66
2024-04-11T11:07:12.454Z,97.25
2024-04-11T11:09:46.878Z,98.30
2024-04-11T11:12:17.191Z,97.56
2024-04-11T11:14:44.347Z,96.73
2024-04-11T11:17:18.471Z,98.41
2024-04-11T11:19:46.323Z,98.47
2024-04-11T11:22:15.787Z,97.32
2024-04-11T11:24:44.364Z,98.14
2024-04-11T11:27:11.259Z,97.66
2024-04-11T11:29:43.427Z,97.63
2024-04-11T11:32:22.220Z,97.60
2024-04-11T11:34:49.050Z,98.27
2024-04-11T11:37:16.005Z,97.66
2024-04-11T11:39:51.307Z,97.47
2024-04-11T11:42:33.389Z,96.97
2024-04-11T11:45:00.953Z,96.42
2024-04-11T11:47:38.454Z,96.38
2024-04-11T11:50:20.566Z,95.63
2024-04-11T11:52:55.345Z,95.70
2024-04-11T11:55:26.939Z,95.49
2024-04-11T11:58:00.522Z,95.77
2024-04-11T12:00:34.436Z,94.68
2024-04-11T12:03:18.527Z,95.18
2024-04-11T12:05:53.560Z,95.63
2024-04-11T12:08:20.763Z,94.68
2024-04-11T12:11:02.744Z,94.51
2024-04-11T12:13:32.418Z,94.35
2024-04-11T12:15:59.551Z,94.73
2024-04-11T12:18:26.597Z,93.31
2024-04-11T12:20:54.259Z,94.14
2024-04-11T12:23:21.858Z,93.84
2024-04-11T12:25:51.046Z,94.71
2024-04-11T12:28:21.244Z,92.96
2024-04-11T12:30:56.458Z,93.25
2024-04-11T12:33:32.611Z,92.64
2024-04-11T12:36:10.358Z,91.47
2024-04-11T12:38:40.955Z,91.22
2024-04-11T12:41:14.360Z,89.45
2024-04-11T12:43:42.289Z,90.58
2024-04-11T12:46:10.615Z,90.48
2024-04-11T12:48:39.635Z,89.86
2024-04-11T12:51:07.919Z,90.12
2024-04-11T12:53:41.245Z,89.18
2024-04-11T12:56:08.177Z,88.64
2024-04-11T12:58:42.545Z,88.54
2024-04-11T13:01:14.054Z,87.46
2024-04-11T13:03:46.862Z,87.87
2024-04-11T13:06:30.454Z,87.23
2024-04-11T13:09:18.712Z,87.40
2024-04-11T13:11:50.112Z,87.60
2024-04-11T13:14:19.873Z,88.17
2024-04-11T13:17:03.616Z,87.89
2024-04-11T13:19:36.611Z,88.52
2024-04-11T13:22:08.615Z,87.74
2024-04-11T13:25:00.859Z,87.36
2024-04-11T13:27:39.048Z,87.10
2024-04-11T13:30:15.666Z,86.42
2024-04-11T13:32:49.921Z,87.56
2024-04-11T13:35:36.874Z,86.63
2024-04-11T13:38:13.909Z,86.58
2024-04-11T13:41:03.021Z,86.39
2024-04-11T13:43:30.473Z,86.51
2024-04-11T13:46:07.788Z,87.36
2024-04-11T13:48:50.174Z,86.34
2024-04-11T13:51:31.354Z,86.10
2024-04-11T13:53:59.089Z,87.05
2024-04-11T13:56:30.770Z,86.30
2024-04-11T13:58:59.797Z,86.22
2024-04-11T14:01:29.928Z,86.32
2024-04-11T14:03:57.174Z,86.25
2024-04-11T14:06:40.388Z,85.81
2024-04-11T14:09:11.547Z,85.10
2024-04-11T14:11:38.798Z,84.65
2024-04-11T14:14:05.907Z,84.63
2024-04-11T14:16:51.171Z,83.28
2024-04-11T14:19:17.788Z,83.11
2024-04-11T14:21:54.567Z,82.60
2024-04-11T14:24:36.812Z,82.89
2024-04-11T14:27:07.530Z,82.36
2024-04-11T14:29:38.478Z,82.63
2024-04-11T14:32:07.421Z,82.43
2024-04-11T14:34:52.715Z,82.24
2024-04-11T14:37:33.345Z,81.92
2024-04-11T14:40:05.210Z,82.07
2024-04-11T14:42:35.637Z,82.64
2024-04-11T14:45:07.664Z,82.44
2024-04-11T14:47:34.867Z,82.38
2024-04-11T14:50:03.782Z,82.21
2024-04-11T14:52:34.032Z,82.46
2024-04-11T14:55:01.211Z,82.67
2024-04-11T14:57:30.434Z,82.60
2024-04-11T15:00:00.703Z,82.29
2024-04-11T15:02:30.372Z,82.23
2024-04-11T15:05:10.441Z,81.68
2024-04-11T15:07:37.426Z,81.84
2024-04-11T15:10:18.169Z,81.16
2024-04-11T15:12:51.209Z,81.08
2024-04-11T15:15:23.722Z,81.81
2024-04-11T15:18:01.031Z,81.41
2024-04-11T15:20:49.400Z,81.53
2024-04-11T15:23:29.392Z,81.66
2024-04-11T15:25:57.378Z,81.93
2024-04-11T15:28:24.158Z,82.50
2024-04-11T15:31:12.526Z,82.31
2024-04-11T15:33:55.185Z,81.78
2024-04-11T15:36:35.418Z,82.03
2024-04-11T15:39:02.851Z,82.11
2024-04-11T15:41:30.649Z,82.27
2024-04-11T15:43:57.529Z,82.11
2024-04-11T15:46:25.544Z,81.43
2024-04-11T15:48:58.402Z,82.17
2024-04-11T15:51:25.905Z,81.67
2024-04-11T15:54:01.567Z,82.01
2024-04-11T15:56:38.908Z,82.21
2024-04-11T15:59:12.005Z,81.27
2024-04-11T16:01:42.001Z,81.26
2024-04-11T16:04:09.234Z,81.36
2024-04-11T16:06:49.306Z,81.41
2024-04-11T16:09:17.512Z,81.45
2024-04-11T16:11:47.048Z,81.25
2024-04-11T16:14:18.212Z,81.39
2024-04-11T16:16:51.798Z,81.64
2024-04-11T16:19:18.898Z,81.96
2024-04-11T16:21:45.695Z,81.46
2024-04-11T16:24:15.774Z,80.94
2024-04-11T16:26:42.438Z,81.93
2024-04-11T16:29:09.337Z,82.10
2024-04-11T16:31:39.709Z,82.91
2024-04-11T16:34:08.231Z,83.83
2024-04-11T16:36:54.616Z,83.69
2024-04-11T16:39:30.429Z,84.30
2024-04-11T16:41:59.679Z,84.24
2024-04-11T16:44:26.685Z,84.30
2024-04-11T16:46:57.129Z,84.43
2024-04-11T16:49:43.429Z,85.08
2024-04-11T16:52:11.403Z,84.94
2024-04-11T16:54:44.718Z,85.06
2024-04-11T16:57:14.706Z,84.84
2024-04-11T16:59:45.703Z,84.80
2024-04-11T17:02:12.775Z,84.44
2024-04-11T17:04:43.087Z,84.47
2024-04-11T17:10:34.929Z,84.49
2024-04-11T17:13:02.481Z,85.14
2024-04-11T17:15:31.171Z,84.85
2024-04-11T17:18:07.017Z,85.38
2024-04-11T17:20:36.488Z,85.38
2024-04-11T17:23:03.311Z,85.70
2024-04-11T17:25:34.249Z,85.39
2024-04-11T17:28:01.488Z,85.80
2024-04-11T17:30:55.301Z,85.72
2024-04-11T17:33:32.412Z,86.04
2024-04-11T17:35:59.555Z,86.34
2024-04-11T17:38:41.691Z,86.25
2024-04-11T17:41:08.668Z,86.16
2024-04-11T17:43:43.051Z,86.83
2024-04-11T17:46:09.738Z,86.47
2024-04-11T17:48:43.255Z,87.15
2024-04-11T17:51:16.863Z,86.95
2024-04-11T17:53:50.707Z,86.99
2024-04-11T17:56:24.457Z,87.32
2024-04-11T17:58:53.701Z,87.19
2024-04-11T18:01:24.682Z,87.49
2024-04-11T18:03:54.016Z,87.77
2024-04-11T18:06:21.393Z,87.66
2024-04-11T18:08:52.700Z,88.55
2024-04-11T18:11:21.185Z,88.29
2024-04-11T18:13:50.313Z,88.79
2024-04-11T18:16:18.701Z,89.43
2024-04-11T18:18:48.838Z,89.09
2024-04-11T18:21:19.311Z,89.56
2024-04-11T18:23:51.877Z,89.77
2024-04-11T18:26:18.837Z,90.04
2024-04-11T18:28:45.451Z,90.11
2024-04-11T18:31:17.864Z,90.41
2024-04-11T18:33:48.956Z,90.48
2024-04-11T18:36:26.093Z,90.54
2024-04-11T18:38:53.389Z,90.83
2024-04-11T18:41:39.856Z,90.91
2024-04-11T18:44:09.754Z,91.33
2024-04-11T18:46:55.269Z,91.56
2024-04-11T18:49:29.096Z,91.86
2024-04-11T18:52:00.022Z,91.73
2024-04-11T18:54:32.401Z,92.13
2024-04-11T18:57:02.864Z,92.23
2024-04-11T18:59:35.339Z,92.51
2024-04-11T19:02:03.116Z,92.58
2024-04-11T19:04:42.923Z,92.71
2024-04-11T19:07:25.191Z,92.93
2024-04-11T19:09:59.863Z,93.11
2024-04-11T19:12:27.576Z,93.61
2024-04-11T19:14:57.915Z,93.96
2024-04-11T19:17:27.198Z,94.09
2024-04-11T19:19:54.546Z,94.14
2024-04-11T19:22:23.568Z,94.05
2024-04-11T19:24:54.066Z,94.26
2024-04-11T19:27:22.552Z,94.39
2024-04-11T19:29:53.081Z,93.98
2024-04-11T19:32:19.843Z,94.68
2024-04-11T19:34:49.681Z,94.60
2024-04-11T19:37:16.799Z,94.65
2024-04-11T19:39:46.734Z,95.00
2024-04-11T19:42:19.927Z,95.22
2024-04-11T19:44:50.307Z,95.56
2024-04-11T19:47:20.279Z,95.51
2024-04-11T19:50:08.040Z,95.54
2024-04-11T19:52:34.720Z,95.63
2024-04-11T19:55:21.853Z,95.87
2024-04-11T19:57:49.587Z,96.21
2024-04-11T20:00:34.463Z,96.44
2024-04-11T20:03:17.261Z,96.33
2024-04-11T20:06:00.670Z,96.42
2024-04-11T20:08:28.453Z,96.84
2024-04-11T20:11:04.475Z,96.91
2024-04-11T20:13:47.748Z,96.84
2024-04-11T20:16:18.496Z,97.06
2024-04-11T20:18:49.093Z,97.08
2024-04-11T20:21:16.208Z,96.76
2024-04-11T20:23:45.994Z,97.15
2024-04-11T20:26:18.172Z,97.38
2024-04-11T20:28:48.691Z,97.38
2024-04-11T20:31:19.058Z,97.25
2024-04-11T20:33:51.170Z,97.20
2024-04-11T20:36:20.771Z,97.45
2024-04-11T20:38:50.530Z,97.08
2024-04-11T20:41:26.266Z,97.11
2024-04-11T20:44:19.689Z,96.99
2024-04-11T20:47:15.186Z,96.95
2024-04-11T20:49:44.608Z,97.30
2024-04-11T20:52:32.150Z,97.32
2024-04-11T20:55:17.366Z,97.43
2024-04-11T20:58:02.653Z,97.73
2024-04-11T21:00:48.138Z,97.87
2024-04-11T21:03:33.462Z,97.97
2024-04-11T21:06:20.342Z,98.13
2024-04-11T21:09:07.398Z,98.26
2024-04-11T21:11:53.062Z,98.28
2024-04-11T21:14:38.683Z,98.42
2024-04-11T21:17:24.405Z,98.52
2024-04-11T21:20:10.763Z,98.61
2024-04-11T21:22:55.790Z,98.64
2024-04-11T21:25:43.260Z,98.68
2024-04-11T21:28:29.422Z,98.57
2024-04-11T21:31:15.227Z,98.71
2024-04-11T21:33:49.378Z,98.88
2024-04-11T21:36:20.333Z,99.01
2024-04-11T21:38:48.420Z,99.01
2024-04-11T21:41:30.232Z,99.15
2024-04-11T21:43:57.521Z,98.96
2024-04-11T21:46:36.335Z,98.96
2024-04-11T21:49:03.451Z,99.30
2024-04-11T21:51:34.607Z,99.21
2024-04-11T21:54:02.896Z,99.08
2024-04-11T21:56:33.303Z,99.34
2024-04-11T21:59:01.393Z,99.33
2024-04-11T22:01:44.957Z,99.11
2024-04-11T22:04:13.304Z,98.63
2024-04-11T22:06:41.601Z,98.96
2024-04-11T22:09:16.967Z,98.63
2024-04-11T22:11:46.699Z,98.50
2024-04-11T22:14:22.525Z,98.70
2024-04-11T22:16:56.349Z,98.53
2024-04-11T22:19:24.917Z,98.30
2024-04-11T22:21:56.577Z,98.38
2024-04-11T22:24:26.334Z,98.05
2024-04-11T22:26:53.034Z,98.13
2024-04-11T22:29:22.700Z,98.11
2024-04-11T22:31:54.300Z,98.29
2024-04-11T22:34:25.579Z,98.18
2024-04-11T22:36:55.005Z,97.82
2024-04-11T22:39:21.810Z,98.07
2024-04-11T22:41:57.868Z,97.77
2024-04-11T22:44:25.154Z,97.67
2024-04-11T22:46:58.598Z,97.67
2024-04-11T22:49:32.959Z,97.27
2024-04-11T22:52:02.437Z,97.23
2024-04-11T22:54:32.405Z,97.66
2024-04-11T22:57:00.778Z,97.55
2024-04-11T22:59:31.812Z,97.37
2024-04-11T23:02:18.740Z,97.20
2024-04-11T23:05:01.791Z,97.32
2024-04-11T23:07:36.722Z,96.62
2024-04-11T23:10:21.186Z,96.71
2024-04-11T23:12:53.193Z,96.90
2024-04-11T23:15:24.850Z,96.95
2024-04-11T23:18:08.641Z,96.87
2024-04-11T23:20:38.473Z,96.77
2024-04-11T23:23:18.829Z,96.73
2024-04-11T23:26:04.524Z,96.45
2024-04-11T23:28:32.898Z,96.58
2024-04-11T23:31:06.140Z,96.31
2024-04-11T23:33:34.709Z,95.93
2024-04-11T23:36:09.861Z,96.08
2024-04-11T23:38:41.322Z,95.88
2024-04-11T23:41:12.205Z,96.11
2024-04-11T23:43:47.031Z,96.03
2024-04-11T23:46:34.080Z,95.89
2024-04-11T23:49:09.675Z,95.77
2024-04-11T23:51:50.081Z,95.83
2024-04-11T23:54:23.543Z,95.84
2024-04-11T23:57:00.890Z,95.92
2024-04-11T23:59:38.192Z,95.68
